Time;durP1;ratioP1;P1;durP2;ratioP2;P2;SDS_P1;SDS_P2;PMS_P1;PMS_P2;Temp;Humidity;BMP_temperature;BMP_pressure;BME280_temperature;BME280_humidity;BME280_pressure;Samples;Min_cycle;Max_cycle;Signal;HPM_P1;HPM_P2
2024/01/17 00:00:37;;;;;;;7.35;3.28;;;1.20;99.90;;;;;;5092781;28;20105;-64
2024/01/17 00:03:03;;;;;;;7.15;3.42;;;1.20;99.90;;;;;;5095095;28;20093;-64
2024/01/17 00:05:29;;;;;;;7.32;3.60;;;1.20;99.90;;;;;;5093232;28;20040;-64
2024/01/17 00:07:55;;;;;;;8.38;3.63;;;1.20;99.90;;;;;;5093024;28;20043;-64
2024/01/17 00:10:20;;;;;;;7.95;3.80;;;1.20;99.90;;;;;;5093397;28;20036;-65
2024/01/17 00:12:46;;;;;;;8.30;3.92;;;1.20;99.90;;;;;;5093336;28;20367;-64
2024/01/17 00:15:12;;;;;;;9.10;4.30;;;1.20;99.90;;;;;;5092739;28;20032;-64
2024/01/17 00:17:37;;;;;;;8.98;4.20;;;1.20;99.90;;;;;;5094500;28;20036;-64
2024/01/17 00:20:04;;;;;;;12.10;3.60;;;1.20;99.90;;;;;;5094156;28;20036;-64
2024/01/17 00:22:29;;;;;;;8.30;4.20;;;1.20;99.90;;;;;;5092297;28;20130;-64
2024/01/17 00:24:55;;;;;;;12.35;4.93;;;1.10;99.90;;;;;;5094706;28;20040;-64
2024/01/17 00:27:24;;;;;;;9.43;4.75;;;1.10;99.90;;;;;;5093530;28;20389;-64
2024/01/17 00:29:56;;;;;;;12.38;5.18;;;1.10;99.90;;;;;;5092474;28;20050;-64
2024/01/17 00:32:25;;;;;;;11.20;5.25;;;1.10;99.90;;;;;;5092869;28;20047;-64
2024/01/17 00:34:51;;;;;;;9.15;4.38;;;1.10;99.90;;;;;;5092191;28;20137;-64
2024/01/17 00:37:17;;;;;;;8.50;4.55;;;1.10;99.90;;;;;;5092754;28;20437;-64
2024/01/17 00:39:42;;;;;;;11.15;4.47;;;1.10;99.90;;;;;;5092910;28;20040;-64
2024/01/17 00:42:08;;;;;;;11.82;4.80;;;1.00;99.90;;;;;;5092151;28;20043;-63
2024/01/17 00:44:38;;;;;;;9.07;4.63;;;1.00;99.90;;;;;;5092663;28;20499;-64
2024/01/17 00:47:04;;;;;;;9.68;4.55;;;1.00;99.90;;;;;;5094256;28;20075;-64
2024/01/17 00:49:30;;;;;;;8.90;4.10;;;1.00;99.90;;;;;;5092847;28;20051;-65
2024/01/17 00:51:56;;;;;;;9.20;4.68;;;1.00;99.90;;;;;;5092893;28;20396;-64
2024/01/17 00:54:21;;;;;;;10.40;5.55;;;1.00;99.90;;;;;;5092505;28;20075;-64
2024/01/17 00:56:47;;;;;;;9.88;5.00;;;0.90;99.90;;;;;;5091563;28;20047;-64
2024/01/17 00:59:13;;;;;;;8.13;4.60;;;1.00;99.90;;;;;;5092378;28;20056;-64
2024/01/17 01:01:38;;;;;;;9.73;4.95;;;0.90;99.90;;;;;;5092400;28;20391;-64
2024/01/17 01:04:04;;;;;;;14.55;5.38;;;0.90;99.90;;;;;;5092933;28;20036;-64
2024/01/17 01:06:29;;;;;;;10.57;5.43;;;0.90;99.90;;;;;;5091782;28;20492;-63
2024/01/17 01:08:55;;;;;;;9.43;5.93;;;0.80;99.90;;;;;;5092862;28;20043;-63
2024/01/17 01:11:21;;;;;;;12.35;4.85;;;0.90;99.90;;;;;;5092563;28;20040;-64
2024/01/17 01:13:46;;;;;;;10.43;5.35;;;0.90;99.90;;;;;;5075397;28;20050;-64
2024/01/17 01:16:12;;;;;;;9.20;5.22;;;0.90;99.90;;;;;;5092919;28;20047;-64
2024/01/17 01:18:38;;;;;;;9.95;5.20;;;0.90;99.90;;;;;;5090791;28;20040;-64
2024/01/17 01:21:04;;;;;;;12.68;5.28;;;0.80;99.90;;;;;;5092367;28;20044;-64
2024/01/17 01:23:29;;;;;;;10.70;5.05;;;0.80;99.90;;;;;;5091789;28;20043;-64
2024/01/17 01:25:55;;;;;;;9.30;5.70;;;0.80;99.90;;;;;;5090503;28;20051;-63
2024/01/17 01:28:21;;;;;;;8.70;4.93;;;0.80;99.90;;;;;;5076155;28;20515;-63
2024/01/17 01:30:46;;;;;;;12.82;5.32;;;0.80;99.90;;;;;;5091258;28;20503;-63
2024/01/17 01:33:12;;;;;;;12.18;5.40;;;0.80;99.90;;;;;;5091731;28;20586;-64
2024/01/17 01:35:38;;;;;;;10.90;4.50;;;0.80;99.90;;;;;;5093092;28;20146;-64
2024/01/17 01:38:04;;;;;;;8.15;4.68;;;0.70;99.90;;;;;;5074294;28;20188;-64
2024/01/17 01:40:29;;;;;;;11.50;5.53;;;0.70;99.90;;;;;;5092349;28;20028;-64
2024/01/17 01:42:58;;;;;;;8.38;4.75;;;0.70;99.90;;;;;;5092205;28;20052;-64
2024/01/17 01:45:24;;;;;;;9.55;5.40;;;0.60;99.90;;;;;;5073538;28;20035;-64
2024/01/17 01:47:50;;;;;;;10.40;5.22;;;0.70;99.90;;;;;;5071656;28;20059;-64
2024/01/17 01:50:16;;;;;;;12.63;6.00;;;0.70;99.90;;;;;;5087811;28;20032;-64
2024/01/17 01:52:45;;;;;;;11.73;6.18;;;0.70;99.90;;;;;;5090658;28;20036;-64
2024/01/17 01:55:11;;;;;;;9.05;5.32;;;0.70;99.90;;;;;;5092018;28;20024;-64
2024/01/17 01:57:46;;;;;;;11.05;5.80;;;0.70;99.90;;;;;;5091294;28;20056;-64
2024/01/17 02:00:13;;;;;;;13.38;6.07;;;0.70;99.90;;;;;;5090486;28;20119;-64
2024/01/17 02:02:39;;;;;;;12.43;6.38;;;0.60;99.90;;;;;;5091286;28;20043;-64
2024/01/17 02:05:05;;;;;;;11.98;6.43;;;0.70;99.90;;;;;;5091591;28;20452;-64
2024/01/17 02:07:32;;;;;;;19.60;6.20;;;0.70;99.90;;;;;;5091511;28;20119;-64
2024/01/17 02:09:59;;;;;;;12.40;5.85;;;0.70;99.90;;;;;;5092710;28;20035;-64
2024/01/17 02:12:25;;;;;;;10.80;6.43;;;0.60;99.90;;;;;;5091305;28;20039;-64
2024/01/17 02:14:51;;;;;;;11.18;6.07;;;0.60;99.90;;;;;;5090294;28;20447;-63
2024/01/17 02:17:16;;;;;;;11.68;6.03;;;0.60;99.90;;;;;;5090925;28;20123;-64
2024/01/17 02:19:42;;;;;;;11.18;4.90;;;0.70;99.90;;;;;;5091020;28;20036;-63
2024/01/17 02:22:08;;;;;;;10.65;5.68;;;0.60;99.90;;;;;;5090480;28;20393;-64
2024/01/17 02:24:34;;;;;;;10.75;5.72;;;0.70;99.90;;;;;;5090766;28;20047;-64
2024/01/17 02:27:00;;;;;;;12.68;5.78;;;0.70;99.90;;;;;;5090430;28;20040;-63
2024/01/17 02:29:27;;;;;;;12.95;6.10;;;0.60;99.90;;;;;;5089171;28;20481;-64
2024/01/17 02:31:55;;;;;;;9.07;6.03;;;0.60;99.90;;;;;;5092126;28;20052;-64
2024/01/17 02:34:21;;;;;;;13.73;6.55;;;0.60;99.90;;;;;;5073484;28;20040;-64
2024/01/17 02:36:47;;;;;;;11.98;7.25;;;0.70;99.90;;;;;;5074429;28;20170;-64
2024/01/17 02:39:15;;;;;;;12.57;6.65;;;0.60;99.90;;;;;;5091140;28;20123;-63
2024/01/17 02:41:44;;;;;;;11.95;6.22;;;0.60;99.90;;;;;;5090055;28;20044;-63
2024/01/17 02:44:09;;;;;;;12.30;5.88;;;0.60;99.90;;;;;;5090598;28;20393;-64
2024/01/17 02:46:35;;;;;;;12.05;6.72;;;0.60;99.90;;;;;;5090666;28;20047;-64
2024/01/17 02:49:01;;;;;;;12.75;6.93;;;0.60;99.90;;;;;;5090685;28;20059;-64
2024/01/17 02:51:26;;;;;;;13.50;6.80;;;0.60;99.90;;;;;;5090831;28;20071;-64
2024/01/17 02:53:52;;;;;;;11.00;6.47;;;0.60;99.90;;;;;;5091498;28;20043;-64
2024/01/17 02:56:17;;;;;;;10.52;5.78;;;0.60;99.90;;;;;;5089688;28;20125;-63
2024/01/17 02:58:44;;;;;;;13.45;7.43;;;0.60;99.90;;;;;;5090752;28;20052;-64
2024/01/17 03:01:09;;;;;;;11.38;6.28;;;0.60;99.90;;;;;;5091991;28;20044;-64
2024/01/17 03:03:35;;;;;;;10.95;7.30;;;0.50;99.90;;;;;;5090826;28;20504;-64
2024/01/17 03:06:01;;;;;;;12.73;7.03;;;0.60;99.90;;;;;;5092436;28;20374;-64
2024/01/17 03:08:27;;;;;;;10.63;6.10;;;0.50;99.90;;;;;;5090519;28;20105;-64
2024/01/17 03:10:52;;;;;;;13.80;6.85;;;0.50;99.90;;;;;;5091055;28;20044;-64
2024/01/17 03:13:18;;;;;;;16.48;7.88;;;0.50;99.90;;;;;;5089998;28;20123;-64
2024/01/17 03:15:44;;;;;;;12.35;6.82;;;0.50;99.90;;;;;;5091411;28;20119;-64
2024/01/17 03:18:13;;;;;;;11.25;6.43;;;0.50;99.90;;;;;;5089642;28;20101;-64
2024/01/17 03:20:42;;;;;;;13.07;6.75;;;0.50;99.90;;;;;;5091699;28;20048;-64
2024/01/17 03:23:07;;;;;;;13.30;6.32;;;0.60;99.90;;;;;;5090469;28;20071;-64
2024/01/17 03:25:33;;;;;;;14.35;6.65;;;0.60;99.90;;;;;;5089629;28;20082;-64
2024/01/17 03:27:59;;;;;;;13.88;7.35;;;0.60;99.90;;;;;;5091759;28;20036;-64
2024/01/17 03:30:24;;;;;;;13.55;7.40;;;0.60;99.90;;;;;;5089818;28;20517;-64
2024/01/17 03:32:50;;;;;;;16.10;7.18;;;0.60;99.90;;;;;;5091740;28;20480;-64
2024/01/17 03:35:15;;;;;;;13.70;8.10;;;0.70;99.90;;;;;;5090345;28;20499;-64
2024/01/17 03:37:41;;;;;;;17.63;7.13;;;0.60;99.90;;;;;;5090009;28;20040;-64
2024/01/17 03:40:07;;;;;;;12.90;7.53;;;0.70;99.90;;;;;;5091377;28;20496;-64
2024/01/17 03:42:33;;;;;;;11.05;6.80;;;0.70;99.90;;;;;;5110756;28;20036;-64
2024/01/17 03:44:58;;;;;;;13.55;7.32;;;0.70;99.90;;;;;;5093397;28;20039;-64
2024/01/17 03:47:24;;;;;;;12.93;7.20;;;0.70;99.90;;;;;;5093925;28;20115;-64
2024/01/17 03:49:50;;;;;;;12.38;7.30;;;0.80;99.90;;;;;;5095165;28;20055;-64
2024/01/17 03:52:16;;;;;;;12.70;7.63;;;0.80;99.90;;;;;;5092888;28;20048;-64
2024/01/17 03:54:41;;;;;;;13.65;7.40;;;0.80;99.90;;;;;;5095199;28;20031;-64
2024/01/17 03:57:08;;;;;;;18.23;8.50;;;0.80;99.90;;;;;;5095086;28;20566;-64
2024/01/17 03:59:34;;;;;;;14.40;7.43;;;0.70;99.90;;;;;;5076015;28;20044;-64
2024/01/17 04:02:00;;;;;;;14.48;8.32;;;0.70;99.90;;;;;;5095286;28;20043;-64
2024/01/17 04:04:26;;;;;;;16.35;8.40;;;0.70;99.90;;;;;;5094661;28;20036;-64
2024/01/17 04:06:53;;;;;;;12.90;8.60;;;0.70;99.90;;;;;;5092876;28;20051;-64
2024/01/17 04:09:19;;;;;;;13.93;8.40;;;0.70;99.90;;;;;;5076614;28;20051;-64
2024/01/17 04:11:45;;;;;;;12.88;7.20;;;0.70;99.90;;;;;;5093490;28;20054;-64
2024/01/17 04:14:12;;;;;;;16.50;7.93;;;0.70;99.90;;;;;;5092760;28;20119;-64
2024/01/17 04:16:39;;;;;;;16.17;8.52;;;0.70;99.90;;;;;;5076830;28;20040;-64
2024/01/17 04:19:06;;;;;;;14.10;8.60;;;0.70;99.90;;;;;;5095016;28;20099;-64
2024/01/17 04:21:32;;;;;;;11.38;7.35;;;0.70;99.90;;;;;;5093508;28;20093;-64
2024/01/17 04:23:58;;;;;;;10.63;6.90;;;0.70;99.90;;;;;;5093329;28;20415;-64
2024/01/17 04:26:25;;;;;;;15.55;8.38;;;0.80;99.90;;;;;;5094699;28;20043;-64
2024/01/17 04:28:52;;;;;;;13.80;8.05;;;0.70;99.90;;;;;;5109454;28;20082;-64
2024/01/17 04:31:31;;;;;;;14.70;7.95;;;0.80;99.90;;;;;;5093035;28;20040;-64
2024/01/17 04:33:58;;;;;;;13.90;8.27;;;0.70;99.90;;;;;;5092787;28;20388;-64
2024/01/17 04:36:27;;;;;;;11.88;8.02;;;0.70;99.90;;;;;;5093171;28;20044;-64
2024/01/17 04:38:53;;;;;;;17.08;8.15;;;0.70;99.90;;;;;;5093253;28;20051;-64
2024/01/17 04:41:20;;;;;;;19.90;9.00;;;0.70;99.90;;;;;;5092012;28;20027;-64
2024/01/17 04:43:46;;;;;;;13.25;8.10;;;0.80;99.90;;;;;;5094029;28;20107;-64
2024/01/17 04:46:13;;;;;;;11.55;7.90;;;0.70;99.90;;;;;;5076056;28;20117;-64
2024/01/17 04:48:39;;;;;;;12.25;7.57;;;0.70;99.90;;;;;;5091757;28;20054;-64
2024/01/17 04:51:06;;;;;;;13.93;8.18;;;0.70;99.90;;;;;;5092361;28;20040;-64
2024/01/17 04:53:33;;;;;;;17.15;8.85;;;0.70;99.90;;;;;;5091723;28;20051;-64
2024/01/17 04:56:02;;;;;;;14.90;8.75;;;0.70;99.90;;;;;;5091957;28;20091;-64
2024/01/17 04:58:28;;;;;;;16.25;9.40;;;0.60;99.90;;;;;;5075673;28;20091;-64
2024/01/17 05:00:54;;;;;;;15.80;8.75;;;0.60;99.90;;;;;;5093054;28;20080;-64
2024/01/17 05:03:19;;;;;;;16.02;8.25;;;0.50;99.90;;;;;;5092638;28;20039;-64
2024/01/17 05:05:48;;;;;;;13.10;8.13;;;0.50;99.90;;;;;;5109675;28;20036;-64
2024/01/17 05:08:14;;;;;;;14.70;8.32;;;0.50;99.90;;;;;;5092159;28;20485;-64
2024/01/17 05:10:44;;;;;;;15.60;9.00;;;0.50;99.90;;;;;;5091453;28;20047;-64
2024/01/17 05:13:11;;;;;;;13.00;8.77;;;0.40;99.90;;;;;;5093485;28;20040;-64
2024/01/17 05:15:37;;;;;;;16.33;8.02;;;0.40;99.90;;;;;;5093353;28;20396;-64
2024/01/17 05:18:07;;;;;;;15.82;8.23;;;0.40;99.90;;;;;;5091501;28;20043;-64
2024/01/17 05:20:33;;;;;;;15.02;9.07;;;0.40;99.90;;;;;;5093401;28;20264;-63
2024/01/17 05:22:59;;;;;;;16.13;8.63;;;0.40;99.90;;;;;;5092567;28;20457;-64
2024/01/17 05:25:26;;;;;;;13.20;9.13;;;0.30;99.90;;;;;;5083074;28;20047;-64
2024/01/17 05:27:52;;;;;;;13.93;8.70;;;0.30;99.90;;;;;;5071753;28;20051;-64
2024/01/17 05:30:23;;;;;;;14.30;8.95;;;0.40;99.90;;;;;;5071151;28;20450;-64
2024/01/17 05:32:49;;;;;;;14.85;7.85;;;0.30;99.90;;;;;;5089040;28;20044;-64
2024/01/17 05:35:16;;;;;;;15.25;8.23;;;0.40;99.90;;;;;;5091927;28;20048;-64
2024/01/17 05:37:42;;;;;;;11.13;7.93;;;0.30;99.90;;;;;;5090990;28;20535;-64
2024/01/17 05:40:09;;;;;;;16.02;8.77;;;0.30;99.90;;;;;;5093095;28;20044;-64
2024/01/17 05:42:36;;;;;;;15.90;8.70;;;0.30;99.90;;;;;;5093105;28;20048;-64
2024/01/17 05:45:03;;;;;;;16.65;9.02;;;0.20;99.90;;;;;;5092199;28;20047;-64
2024/01/17 05:47:28;;;;;;;14.68;7.65;;;0.20;99.90;;;;;;5108842;28;20430;-64
2024/01/17 05:49:54;;;;;;;14.95;8.48;;;0.20;99.90;;;;;;5091645;28;20177;-64
2024/01/17 05:52:19;;;;;;;14.38;8.88;;;0.20;99.90;;;;;;5090391;28;20082;-64
2024/01/17 05:54:45;;;;;;;21.52;9.95;;;0.10;99.90;;;;;;5092267;28;20032;-64
2024/01/17 05:57:11;;;;;;;15.43;9.45;;;0.10;99.90;;;;;;5092352;28;20055;-64
2024/01/17 05:59:36;;;;;;;16.42;10.30;;;0.00;99.90;;;;;;5090688;28;20044;-64
2024/01/17 06:02:02;;;;;;;20.45;10.10;;;0.00;99.90;;;;;;5091712;28;20044;-64
2024/01/17 06:04:28;;;;;;;17.15;9.85;;;0.00;99.90;;;;;;5091165;28;20067;-64
2024/01/17 06:06:53;;;;;;;19.42;10.60;;;0.00;99.90;;;;;;5090512;28;20114;-64
2024/01/17 06:09:19;;;;;;;14.50;9.60;;;0.00;99.90;;;;;;5092384;28;20068;-64
2024/01/17 06:11:45;;;;;;;17.10;10.02;;;0.00;99.90;;;;;;5108601;28;20141;-63
2024/01/17 06:14:10;;;;;;;15.32;8.85;;;0.00;99.90;;;;;;5107307;28;20392;-63
2024/01/17 06:16:36;;;;;;;13.90;8.60;;;0.00;99.90;;;;;;5092408;28;20457;-64
2024/01/17 06:19:02;;;;;;;14.52;9.98;;;0.00;99.90;;;;;;5074446;28;20040;-64
2024/01/17 06:21:27;;;;;;;14.20;8.88;;;0.00;99.90;;;;;;5090450;28;20081;-63
2024/01/17 06:23:53;;;;;;;15.90;10.13;;;-0.10;99.90;;;;;;5090749;28;20061;-64
2024/01/17 06:26:19;;;;;;;17.08;8.77;;;-0.10;99.90;;;;;;5090721;28;20145;-64
2024/01/17 06:28:45;;;;;;;15.88;9.90;;;-0.10;99.90;;;;;;5092194;28;20119;-63
2024/01/17 06:31:10;;;;;;;20.45;10.52;;;-0.10;99.90;;;;;;5090567;28;20135;-64
2024/01/17 06:33:36;;;;;;;16.52;10.13;;;-0.10;99.90;;;;;;5090365;28;20032;-64
2024/01/17 06:36:02;;;;;;;16.33;9.30;;;-0.10;99.90;;;;;;5092549;28;20032;-64
2024/01/17 06:38:28;;;;;;;16.35;9.38;;;-0.10;99.90;;;;;;5090558;28;20052;-64
2024/01/17 06:40:53;;;;;;;19.45;9.75;;;-0.10;99.90;;;;;;5073537;28;20047;-64
2024/01/17 06:43:20;;;;;;;16.30;9.80;;;-0.10;99.90;;;;;;5090836;28;20469;-63
2024/01/17 06:45:46;;;;;;;15.75;9.40;;;-0.10;99.90;;;;;;5092273;28;20040;-64
2024/01/17 06:48:12;;;;;;;19.50;10.82;;;-0.10;99.90;;;;;;5090040;28;20115;-64
2024/01/17 06:50:37;;;;;;;14.23;9.90;;;-0.10;99.90;;;;;;5073793;28;20036;-64
2024/01/17 06:53:03;;;;;;;17.20;9.80;;;-0.20;99.90;;;;;;5090415;28;20047;-64
2024/01/17 06:55:29;;;;;;;14.52;8.85;;;-0.20;99.90;;;;;;5091028;28;20047;-64
2024/01/17 06:57:54;;;;;;;19.40;9.43;;;-0.30;99.90;;;;;;5092239;28;20115;-64
2024/01/17 07:00:20;;;;;;;18.23;10.80;;;-0.30;99.90;;;;;;5090670;28;20044;-64
2024/01/17 07:02:47;;;;;;;13.93;9.05;;;-0.30;99.90;;;;;;5106352;28;20028;-64
2024/01/17 07:05:13;;;;;;;18.73;10.50;;;-0.30;99.90;;;;;;5090384;28;20214;-64
2024/01/17 07:07:39;;;;;;;14.45;9.30;;;-0.30;99.90;;;;;;5073838;28;20106;-64
2024/01/17 07:10:06;;;;;;;16.42;10.18;;;-0.40;99.90;;;;;;5090053;28;20040;-64
2024/01/17 07:12:31;;;;;;;16.05;9.52;;;-0.40;99.90;;;;;;5089696;28;20052;-64
2024/01/17 07:14:57;;;;;;;15.55;9.77;;;-0.40;99.90;;;;;;5091520;28;20044;-64
2024/01/17 07:17:23;;;;;;;17.45;8.73;;;-0.40;99.90;;;;;;5111248;28;20044;-64
2024/01/17 07:19:49;;;;;;;16.35;9.18;;;-0.40;99.90;;;;;;5094199;28;20073;-64
2024/01/17 07:22:14;;;;;;;15.45;9.40;;;-0.50;99.90;;;;;;5093854;28;20036;-64
2024/01/17 07:24:40;;;;;;;17.55;9.48;;;-0.50;99.90;;;;;;5094988;28;20039;-64
2024/01/17 07:27:06;;;;;;;20.52;9.95;;;-0.50;99.90;;;;;;5094884;28;20048;-64
2024/01/17 07:29:32;;;;;;;16.88;10.20;;;-0.50;99.90;;;;;;5093351;28;20150;-64
2024/01/17 07:31:57;;;;;;;19.25;10.73;;;-0.50;99.90;;;;;;5094772;28;20048;-64
2024/01/17 07:34:23;;;;;;;16.02;9.50;;;-0.50;99.90;;;;;;5111048;28;20031;-64
2024/01/17 07:36:51;;;;;;;15.15;9.38;;;-0.50;99.90;;;;;;5076341;28;20031;-65
2024/01/17 07:39:18;;;;;;;18.95;10.60;;;-0.50;99.90;;;;;;5095246;28;20396;-65
2024/01/17 07:41:44;;;;;;;15.90;9.40;;;-0.50;99.90;;;;;;5094931;28;20040;-65
2024/01/17 07:44:10;;;;;;;18.83;9.32;;;-0.50;99.90;;;;;;5093526;28;20078;-65
2024/01/17 07:46:36;;;;;;;16.45;9.10;;;-0.40;99.90;;;;;;5094052;28;20075;-64
2024/01/17 07:49:02;;;;;;;13.73;9.50;;;-0.40;99.90;;;;;;5094128;28;20510;-65
2024/01/17 07:51:30;;;;;;;17.48;8.07;;;-0.40;99.90;;;;;;5092881;28;20046;-64
2024/01/17 07:53:56;;;;;;;17.00;8.98;;;-0.40;99.90;;;;;;5092424;28;20430;-65
2024/01/17 07:56:23;;;;;;;16.98;9.77;;;-0.40;99.90;;;;;;5094582;28;20523;-65
2024/01/17 07:58:50;;;;;;;16.48;9.65;;;-0.30;99.90;;;;;;5094220;28;20066;-65
2024/01/17 08:01:16;;;;;;;14.93;8.73;;;-0.30;99.90;;;;;;5094836;28;20520;-65
2024/01/17 08:03:41;;;;;;;18.30;8.65;;;-0.30;99.90;;;;;;5093493;28;20101;-65
2024/01/17 08:06:07;;;;;;;15.63;9.77;;;-0.30;99.90;;;;;;5093403;28;20040;-65
2024/01/17 08:08:33;;;;;;;15.52;8.68;;;-0.30;99.90;;;;;;5093255;28;20048;-65
2024/01/17 08:10:58;;;;;;;14.73;9.18;;;-0.30;99.90;;;;;;5094644;28;20047;-64
2024/01/17 08:13:24;;;;;;;15.13;10.10;;;-0.30;99.90;;;;;;5092793;28;20078;-65
2024/01/17 08:15:50;;;;;;;16.33;9.27;;;-0.30;99.90;;;;;;5093723;28;20051;-65
2024/01/17 08:18:16;;;;;;;14.65;8.77;;;-0.20;99.90;;;;;;5092868;28;20432;-65
2024/01/17 08:20:43;;;;;;;15.65;8.05;;;-0.20;99.90;;;;;;5092962;28;20036;-65
2024/01/17 08:23:08;;;;;;;18.83;9.07;;;-0.30;99.90;;;;;;5095110;28;20097;-65
2024/01/17 08:25:34;;;;;;;17.00;9.77;;;-0.30;99.90;;;;;;5093142;28;20039;-65
2024/01/17 08:28:00;;;;;;;16.35;7.82;;;-0.30;99.90;;;;;;5092526;28;20111;-65
2024/01/17 08:30:29;;;;;;;14.27;9.25;;;-0.30;99.90;;;;;;5075171;28;20044;-65
2024/01/17 08:32:54;;;;;;;16.80;8.82;;;-0.30;99.90;;;;;;5090662;28;20043;-64
2024/01/17 08:35:20;;;;;;;15.73;8.70;;;-0.30;99.90;;;;;;5092379;28;20036;-65
2024/01/17 08:37:46;;;;;;;16.38;9.43;;;-0.30;99.90;;;;;;5075923;28;20051;-64
2024/01/17 08:40:12;;;;;;;19.90;8.93;;;-0.30;99.90;;;;;;5095468;28;20044;-64
2024/01/17 08:42:38;;;;;;;15.07;9.32;;;-0.20;99.90;;;;;;5102922;28;20052;-65
2024/01/17 08:45:06;;;;;;;14.60;8.65;;;-0.30;99.90;;;;;;5094265;28;20040;-64
2024/01/17 08:47:32;;;;;;;16.67;9.82;;;-0.20;99.90;;;;;;5101057;28;20078;-64
2024/01/17 08:50:00;;;;;;;14.60;9.38;;;-0.20;99.90;;;;;;5092254;28;20086;-64
2024/01/17 08:52:26;;;;;;;19.60;11.07;;;-0.20;99.90;;;;;;5093432;28;20043;-65
2024/01/17 08:54:54;;;;;;;18.08;10.40;;;-0.20;99.90;;;;;;5091050;28;20036;-64
2024/01/17 08:57:20;;;;;;;20.38;10.60;;;-0.20;99.90;;;;;;5087261;28;20132;-65
2024/01/17 08:59:45;;;;;;;17.08;9.07;;;-0.20;99.90;;;;;;5089560;28;20097;-64
2024/01/17 09:02:11;;;;;;;15.02;9.13;;;-0.20;99.90;;;;;;5088737;28;20094;-64
2024/01/17 09:04:37;;;;;;;16.67;8.40;;;-0.20;99.90;;;;;;5072990;28;20698;-64
2024/01/17 09:07:02;;;;;;;16.83;9.32;;;-0.20;99.90;;;;;;5089989;28;20066;-64
2024/01/17 09:09:28;;;;;;;13.10;8.18;;;-0.10;99.90;;;;;;5088468;28;20070;-64
2024/01/17 09:11:54;;;;;;;15.18;9.00;;;-0.10;99.90;;;;;;5090741;28;20109;-64
2024/01/17 09:14:21;;;;;;;13.82;8.73;;;-0.10;99.90;;;;;;5090969;28;20039;-64
2024/01/17 09:16:51;;;;;;;15.35;10.20;;;-0.10;99.90;;;;;;5088331;28;20043;-64
2024/01/17 09:19:20;;;;;;;14.05;8.85;;;-0.10;99.90;;;;;;5106804;28;20128;-64
2024/01/17 09:21:47;;;;;;;13.93;9.40;;;-0.10;99.90;;;;;;5086984;28;20495;-64
2024/01/17 09:24:13;;;;;;;13.95;8.57;;;-0.10;99.90;;;;;;5087309;28;20042;-64
2024/01/17 09:26:39;;;;;;;12.60;8.25;;;-0.10;99.90;;;;;;5089658;28;20032;-64
2024/01/17 09:29:04;;;;;;;14.85;8.75;;;0.00;99.90;;;;;;5087741;28;20510;-64
2024/01/17 09:31:30;;;;;;;16.05;10.05;;;0.00;99.90;;;;;;5070815;28;20039;-65
2024/01/17 09:33:56;;;;;;;15.95;8.65;;;0.00;99.90;;;;;;5088154;28;20133;-64
2024/01/17 09:36:22;;;;;;;14.02;8.38;;;0.10;99.90;;;;;;5087353;28;20062;-64
2024/01/17 09:38:47;;;;;;;13.55;7.93;;;0.00;99.90;;;;;;5071338;28;20044;-64
2024/01/17 09:41:13;;;;;;;15.25;8.90;;;0.00;99.90;;;;;;5088674;28;20036;-64
2024/01/17 09:43:39;;;;;;;14.85;8.55;;;0.00;99.90;;;;;;5087564;28;20140;-64
2024/01/17 09:46:11;;;;;;;17.17;9.60;;;0.00;99.90;;;;;;5088315;28;20440;-65
2024/01/17 09:48:38;;;;;;;13.30;8.25;;;0.00;99.90;;;;;;5088512;28;20073;-64
2024/01/17 09:51:04;;;;;;;19.98;9.60;;;0.00;99.90;;;;;;5088197;28;20044;-64
2024/01/17 09:53:33;;;;;;;14.73;8.70;;;0.10;99.90;;;;;;5088319;28;20058;-64
2024/01/17 09:56:01;;;;;;;13.13;9.10;;;0.10;99.90;;;;;;5088668;28;20098;-64
2024/01/17 09:58:33;;;;;;;14.32;8.52;;;0.10;99.90;;;;;;5086208;28;20047;-65
2024/01/17 10:01:04;;;;;;;16.52;9.27;;;0.10;99.90;;;;;;5088262;28;20523;-65
2024/01/17 10:03:30;;;;;;;13.75;7.55;;;0.10;99.90;;;;;;5087752;28;20048;-65
2024/01/17 10:05:56;;;;;;;16.75;9.68;;;0.20;99.90;;;;;;5087003;28;20051;-65
2024/01/17 10:08:22;;;;;;;14.65;8.77;;;0.20;99.90;;;;;;5088291;28;20040;-64
2024/01/17 10:10:48;;;;;;;16.55;8.85;;;0.20;99.90;;;;;;5087092;28;20101;-64
2024/01/17 10:13:13;;;;;;;15.85;8.32;;;0.30;99.90;;;;;;5086558;28;20055;-65
2024/01/17 10:15:44;;;;;;;15.20;8.35;;;0.30;99.90;;;;;;5086450;28;20040;-64
2024/01/17 10:18:11;;;;;;;20.30;7.93;;;0.30;99.90;;;;;;5087192;28;20070;-64
2024/01/17 10:20:36;;;;;;;11.55;7.45;;;0.30;99.90;;;;;;5090399;28;20040;-64
2024/01/17 10:23:03;;;;;;;14.73;8.15;;;0.30;99.90;;;;;;5088888;28;20040;-65
2024/01/17 10:25:49;;;;;;;13.13;8.00;;;0.30;99.90;;;;;;5087855;28;20123;-64
2024/01/17 10:28:15;;;;;;;17.98;9.82;;;0.40;99.90;;;;;;5087631;28;20055;-64
2024/01/17 10:30:41;;;;;;;13.55;8.65;;;0.40;99.90;;;;;;5088140;28;20044;-64
2024/01/17 10:33:07;;;;;;;13.32;8.07;;;0.40;99.90;;;;;;5087889;28;20369;-65
2024/01/17 10:35:33;;;;;;;11.52;7.72;;;0.40;99.90;;;;;;5087334;28;20036;-65
2024/01/17 10:37:59;;;;;;;11.68;8.43;;;0.40;99.90;;;;;;5088185;28;20051;-65
2024/01/17 10:40:29;;;;;;;14.10;8.15;;;0.50;99.90;;;;;;5086798;28;20097;-64
2024/01/17 10:43:09;;;;;;;15.82;8.63;;;0.50;99.90;;;;;;5088102;28;20040;-65
2024/01/17 10:45:37;;;;;;;13.38;7.88;;;0.50;99.90;;;;;;5087918;28;20111;-65
2024/01/17 10:48:03;;;;;;;15.80;9.50;;;0.50;99.90;;;;;;5073676;28;20089;-65
2024/01/17 10:50:29;;;;;;;13.50;7.75;;;0.50;99.90;;;;;;5089806;28;20078;-64
2024/01/17 10:53:06;;;;;;;14.02;7.63;;;0.50;99.90;;;;;;5075255;28;20050;-64
2024/01/17 10:55:36;;;;;;;13.80;10.05;;;0.50;99.90;;;;;;5091158;28;20047;-65
2024/01/17 10:58:14;;;;;;;11.30;7.68;;;0.50;99.90;;;;;;5108077;28;20109;-64
2024/01/17 11:00:43;;;;;;;13.55;8.75;;;0.50;99.90;;;;;;5074101;28;20040;-65
2024/01/17 11:03:12;;;;;;;15.02;8.00;;;0.40;99.90;;;;;;5092066;28;20039;-64
2024/01/17 11:05:48;;;;;;;13.30;8.73;;;0.40;99.90;;;;;;5091564;28;20039;-64
2024/01/17 11:08:15;;;;;;;12.55;7.35;;;0.40;99.90;;;;;;5085741;28;20048;-64
2024/01/17 11:10:43;;;;;;;46.67;23.58;;;0.40;99.90;;;;;;5091342;28;20044;-64
2024/01/17 11:13:14;;;;;;;38.40;21.55;;;0.30;99.90;;;;;;5092087;28;20039;-64
2024/01/17 11:15:41;;;;;;;34.67;20.52;;;0.30;99.90;;;;;;5089263;28;20097;-65
2024/01/17 11:18:11;;;;;;;25.35;13.88;;;0.30;99.90;;;;;;5092027;28;20043;-64
2024/01/17 11:20:40;;;;;;;23.83;12.70;;;0.30;99.90;;;;;;5082359;28;20772;-64
2024/01/17 11:23:25;;;;;;;26.75;14.57;;;0.20;99.90;;;;;;5090596;28;20069;-64
2024/01/17 11:29:40;;;;;;;16.42;9.55;;;0.20;99.90;;;;;;5090287;28;20374;-64
2024/01/17 11:32:28;;;;;;;16.67;10.13;;;0.30;99.90;;;;;;5095262;28;20047;-64
2024/01/17 11:34:54;;;;;;;17.00;9.90;;;0.30;99.90;;;;;;5110719;28;20280;-64
2024/01/17 11:37:30;;;;;;;18.98;11.75;;;0.20;99.90;;;;;;5090998;28;20040;-64
2024/01/17 11:40:00;;;;;;;14.68;9.88;;;0.30;99.90;;;;;;5074611;28;20093;-64
2024/01/17 11:42:26;;;;;;;17.65;10.15;;;0.30;99.90;;;;;;5091352;28;20378;-64
2024/01/17 11:44:52;;;;;;;13.95;9.07;;;0.30;99.90;;;;;;5102958;28;20058;-64
2024/01/17 11:47:20;;;;;;;12.38;7.93;;;0.40;99.90;;;;;;5091014;28;20085;-64
2024/01/17 11:49:46;;;;;;;13.65;9.00;;;0.40;99.90;;;;;;5090015;28;20092;-64
2024/01/17 11:52:33;;;;;;;15.02;8.45;;;0.50;99.90;;;;;;5089898;28;20127;-64
2024/01/17 11:55:00;;;;;;;12.68;8.75;;;0.50;99.90;;;;;;5091445;28;20044;-64
2024/01/17 11:57:28;;;;;;;12.73;8.75;;;0.60;99.90;;;;;;5089627;28;20059;-64
2024/01/17 12:00:14;;;;;;;15.70;9.05;;;0.60;99.90;;;;;;5097228;28;20493;-64
2024/01/17 12:02:42;;;;;;;14.48;9.43;;;0.70;99.90;;;;;;5090774;28;20070;-64
2024/01/17 12:05:11;;;;;;;17.38;9.18;;;0.70;99.90;;;;;;5073308;28;20767;-64
2024/01/17 12:07:42;;;;;;;14.88;8.27;;;0.80;99.90;;;;;;5090665;28;20499;-65
2024/01/17 12:10:10;;;;;;;13.98;8.93;;;0.80;99.90;;;;;;5089995;28;20083;-65
2024/01/17 12:12:42;;;;;;;13.60;8.32;;;0.80;99.90;;;;;;5089808;28;20055;-64
2024/01/17 12:15:10;;;;;;;14.98;9.90;;;0.90;99.90;;;;;;5089229;28;20122;-64
2024/01/17 12:17:38;;;;;;;11.70;8.55;;;1.00;99.90;;;;;;5091698;28;20054;-64
2024/01/17 12:20:07;;;;;;;13.18;7.93;;;1.00;99.90;;;;;;5090524;28;20575;-64
2024/01/17 12:22:34;;;;;;;17.45;10.10;;;1.00;99.90;;;;;;5074016;28;20039;-64
2024/01/17 12:25:00;;;;;;;15.05;11.27;;;1.00;99.90;;;;;;5090844;28;20044;-64
2024/01/17 12:27:30;;;;;;;13.10;8.93;;;1.00;99.90;;;;;;5091208;28;20052;-64
2024/01/17 12:30:01;;;;;;;19.25;9.68;;;1.10;99.90;;;;;;5090558;28;20404;-64
2024/01/17 12:32:27;;;;;;;14.65;8.45;;;1.10;99.90;;;;;;5090637;28;20101;-64
2024/01/17 12:34:53;;;;;;;15.25;8.38;;;1.10;99.90;;;;;;5090128;28;20063;-64
2024/01/17 12:37:19;;;;;;;12.63;8.57;;;1.20;99.90;;;;;;5084146;28;20063;-63
2024/01/17 12:39:45;;;;;;;14.05;7.63;;;1.20;99.90;;;;;;5054819;28;20044;-65
2024/01/17 12:42:10;;;;;;;10.55;6.13;;;1.20;99.90;;;;;;5093221;28;20082;-64
2024/01/17 12:44:36;;;;;;;13.95;7.38;;;1.20;99.90;;;;;;5094140;28;20036;-64